Time;durP1;ratioP1;P1;durP2;ratioP2;P2;SDS_P1;SDS_P2;PMS_P1;PMS_P2;Temp;Humidity;BMP_temperature;BMP_pressure;BME280_temperature;BME280_humidity;BME280_pressure;Samples;Min_cycle;Max_cycle;Signal;HPM_P1;HPM_P2
2024/01/10 00:02:28;;;;;;;209.82;77.20;;;;;;;-146.82;100.00;71671.09;5019450;28;20041;-79
2024/01/10 00:04:54;;;;;;;221.10;74.00;;;;;;;-146.82;100.00;71671.09;5007903;28;20036;-77
2024/01/10 00:07:19;;;;;;;209.55;73.47;;;;;;;-146.82;100.00;71671.09;5026180;28;20021;-78
2024/01/10 00:09:45;;;;;;;207.80;71.22;;;;;;;-146.82;100.00;71671.09;5023124;28;20034;-78
2024/01/10 00:12:11;;;;;;;199.13;70.15;;;;;;;-146.82;100.00;71671.09;5021114;28;20033;-78
2024/01/10 00:14:36;;;;;;;203.93;75.35;;;;;;;-146.82;100.00;71671.09;5019510;28;20054;-76
2024/01/10 00:17:03;;;;;;;196.23;72.05;;;;;;;-146.82;100.00;71671.09;5016450;28;20116;-77
2024/01/10 00:19:28;;;;;;;186.82;72.30;;;;;;;-146.82;100.00;71671.09;5014195;28;20029;-78
2024/01/10 00:21:54;;;;;;;200.82;76.43;;;;;;;-146.82;100.00;71671.09;5015261;28;20033;-80
2024/01/10 00:24:19;;;;;;;205.38;73.18;;;;;;;-146.82;100.00;71671.09;5015790;28;20026;-77
2024/01/10 00:26:45;;;;;;;200.48;72.97;;;;;;;-146.82;100.00;71671.09;5017660;28;20387;-78
2024/01/10 00:29:11;;;;;;;182.43;70.75;;;;;;;-146.82;100.00;71671.09;5026441;28;20029;-79
2024/01/10 00:31:37;;;;;;;203.98;71.18;;;;;;;-146.82;100.00;71671.09;5030641;28;20034;-79
2024/01/10 00:34:02;;;;;;;204.70;75.20;;;;;;;-146.82;100.00;71671.09;5032666;28;20029;-77
2024/01/10 00:36:28;;;;;;;213.00;76.25;;;;;;;-146.82;100.00;71671.09;5012078;28;20056;-78
2024/01/10 00:38:53;;;;;;;213.55;75.65;;;;;;;-146.82;100.00;71671.09;5029043;28;20038;-79
2024/01/10 00:41:18;;;;;;;213.07;75.60;;;;;;;-146.82;100.00;71671.09;5033320;28;20036;-79
2024/01/10 00:43:44;;;;;;;214.73;76.13;;;;;;;-146.82;100.00;71671.09;5033731;28;20060;-78
2024/01/10 00:46:09;;;;;;;208.18;79.35;;;;;;;-146.82;100.00;71671.09;5035140;28;20029;-78
2024/01/10 00:48:35;;;;;;;217.27;77.15;;;;;;;-146.82;100.00;71671.09;5035825;28;20015;-78
2024/01/10 00:51:00;;;;;;;228.32;79.63;;;;;;;-146.82;100.00;71671.09;5018839;28;20048;-78
2024/01/10 00:53:26;;;;;;;210.70;76.65;;;;;;;-146.82;100.00;71671.09;5035830;28;20058;-79
2024/01/10 00:55:51;;;;;;;217.70;80.80;;;;;;;-146.82;100.00;71671.09;5031666;28;20026;-78
2024/01/10 00:58:17;;;;;;;217.80;78.53;;;;;;;-146.82;100.00;71671.09;5024105;28;20022;-79
2024/01/10 01:00:42;;;;;;;221.50;80.20;;;;;;;-146.82;100.00;71671.09;5017508;28;20032;-78
2024/01/10 01:03:08;;;;;;;206.45;77.38;;;;;;;-146.82;100.00;71671.09;5017971;28;20065;-79
2024/01/10 01:05:33;;;;;;;204.43;74.45;;;;;;;-146.82;100.00;71671.09;5022190;28;20029;-78
2024/01/10 01:07:59;;;;;;;210.68;77.53;;;;;;;-146.82;100.00;71671.09;5021159;28;20026;-79
2024/01/10 01:10:24;;;;;;;206.38;73.93;;;;;;;-146.82;100.00;71671.09;5020287;28;20037;-78
2024/01/10 01:12:49;;;;;;;215.98;72.75;;;;;;;-146.82;100.00;71671.09;5018931;28;20025;-78
2024/01/10 01:15:15;;;;;;;201.70;73.72;;;;;;;-146.82;100.00;71671.09;5019054;28;20054;-79
2024/01/10 01:17:40;;;;;;;182.93;69.60;;;;;;;-146.82;100.00;71671.09;5017635;28;20026;-77
2024/01/10 01:20:07;;;;;;;212.95;76.50;;;;;;;-146.82;100.00;71671.09;5016509;28;20040;-79
2024/01/10 01:22:32;;;;;;;194.65;72.43;;;;;;;-146.82;100.00;71671.09;5016096;28;20099;-78
2024/01/10 01:24:58;;;;;;;202.32;74.18;;;;;;;-146.82;100.00;71671.09;5015218;28;20057;-77
2024/01/10 01:27:23;;;;;;;212.57;75.22;;;;;;;-146.82;100.00;71671.09;5016074;28;20483;-79
2024/01/10 01:29:49;;;;;;;210.70;80.18;;;;;;;-146.82;100.00;71671.09;5015646;28;20482;-77
2024/01/10 01:32:14;;;;;;;211.73;80.45;;;;;;;-146.82;100.00;71671.09;5014595;28;20052;-77
2024/01/10 01:34:40;;;;;;;210.15;79.05;;;;;;;-146.82;100.00;71671.09;5013667;28;20078;-78
2024/01/10 01:37:05;;;;;;;222.23;74.88;;;;;;;-146.82;100.00;71671.09;5014921;28;20048;-79
2024/01/10 01:39:31;;;;;;;229.90;80.65;;;;;;;-146.82;100.00;71671.09;5016909;28;20104;-79
2024/01/10 01:41:56;;;;;;;216.15;78.38;;;;;;;-146.82;100.00;71671.09;5028738;28;20014;-79
2024/01/10 01:44:22;;;;;;;234.02;83.93;;;;;;;-146.82;100.00;71671.09;5023486;28;20033;-77
2024/01/10 01:46:47;;;;;;;207.35;73.85;;;;;;;-146.82;100.00;71671.09;5021489;28;20029;-78
2024/01/10 01:49:14;;;;;;;227.20;82.55;;;;;;;-146.82;100.00;71671.09;5019188;28;20034;-80
2024/01/10 01:51:40;;;;;;;208.63;75.50;;;;;;;-146.82;100.00;71671.09;5016641;28;20033;-77
2024/01/10 01:54:11;;;;;;;216.55;78.07;;;;;;;-146.82;100.00;71671.09;5017571;28;20048;-78
2024/01/10 01:56:37;;;;;;;209.40;74.80;;;;;;;-146.82;100.00;71671.09;5018242;28;20026;-79
2024/01/10 01:59:04;;;;;;;233.77;80.43;;;;;;;-146.82;100.00;71671.09;5018622;28;20093;-77
2024/01/10 02:01:30;;;;;;;211.45;78.35;;;;;;;-146.82;100.00;71671.09;5020793;28;20032;-77
2024/01/10 02:03:56;;;;;;;215.10;78.32;;;;;;;-146.82;100.00;71671.09;5021358;28;20552;-76
2024/01/10 02:06:21;;;;;;;223.98;78.63;;;;;;;-146.82;100.00;71671.09;5021595;28;20030;-78
2024/01/10 02:08:47;;;;;;;231.52;82.25;;;;;;;-146.82;100.00;71671.09;5021782;28;20083;-76
2024/01/10 02:11:12;;;;;;;242.27;82.90;;;;;;;-146.82;100.00;71671.09;5021523;28;20060;-77
2024/01/10 02:13:38;;;;;;;220.57;82.72;;;;;;;-146.82;100.00;71671.09;5023394;28;20034;-77
2024/01/10 02:16:04;;;;;;;221.35;79.03;;;;;;;-146.82;100.00;71671.09;5025702;28;20034;-78
2024/01/10 02:18:30;;;;;;;213.80;75.55;;;;;;;-146.82;100.00;71671.09;5021272;28;20026;-77
2024/01/10 02:20:57;;;;;;;205.00;74.63;;;;;;;-146.82;100.00;71671.09;5016573;28;20494;-77
2024/01/10 02:23:23;;;;;;;205.90;77.32;;;;;;;-146.82;100.00;71671.09;5017583;28;20029;-78
2024/01/10 02:25:48;;;;;;;193.82;75.45;;;;;;;-146.82;100.00;71671.09;5017363;28;20109;-77
2024/01/10 02:28:14;;;;;;;214.75;76.57;;;;;;;-146.82;100.00;71671.09;5016241;28;20040;-76
2024/01/10 02:30:39;;;;;;;194.73;73.80;;;;;;;-146.82;100.00;71671.09;5017423;28;20038;-76
2024/01/10 02:33:05;;;;;;;213.52;76.32;;;;;;;-146.82;100.00;71671.09;5016556;28;20026;-76
2024/01/10 02:35:32;;;;;;;187.35;70.97;;;;;;;-146.82;100.00;71671.09;5018042;28;20030;-77
2024/01/10 02:37:58;;;;;;;193.50;71.60;;;;;;;-146.82;100.00;71671.09;5016436;28;20079;-76
2024/01/10 02:40:24;;;;;;;211.90;70.45;;;;;;;-146.82;100.00;71671.09;5017834;28;20029;-77
2024/01/10 02:42:51;;;;;;;197.60;68.05;;;;;;;-146.82;100.00;71671.09;5019767;28;20447;-76
2024/01/10 02:45:16;;;;;;;191.65;71.97;;;;;;;-146.82;100.00;71671.09;5020002;28;20364;-76
2024/01/10 02:47:42;;;;;;;193.90;70.25;;;;;;;-146.82;100.00;71671.09;5017354;28;20037;-79
2024/01/10 02:50:08;;;;;;;170.85;63.08;;;;;;;-146.82;100.00;71671.09;5016464;28;20061;-79
2024/01/10 02:52:33;;;;;;;193.77;66.03;;;;;;;-146.82;100.00;71671.09;5016388;28;20049;-77
2024/01/10 02:54:58;;;;;;;192.00;65.40;;;;;;;-146.82;100.00;71671.09;5018476;28;20034;-77
2024/01/10 02:57:24;;;;;;;187.68;69.95;;;;;;;-146.82;100.00;71671.09;5021353;28;20040;-76
2024/01/10 02:59:49;;;;;;;169.27;60.28;;;;;;;-146.82;100.00;71671.09;5026185;28;20030;-77
2024/01/10 03:02:15;;;;;;;180.38;67.43;;;;;;;-146.82;100.00;71671.09;5039681;28;20046;-78
2024/01/10 03:04:41;;;;;;;158.20;55.47;;;;;;;-146.82;100.00;71671.09;5037918;28;20028;-77
2024/01/10 03:07:07;;;;;;;184.90;65.90;;;;;;;-146.82;100.00;71671.09;5037724;28;20030;-79
2024/01/10 03:09:32;;;;;;;173.65;64.85;;;;;;;-146.82;100.00;71671.09;5032118;28;20037;-75
2024/01/10 03:11:58;;;;;;;211.02;73.53;;;;;;;-146.82;100.00;71671.09;5028427;28;20083;-77
2024/01/10 03:14:23;;;;;;;217.32;75.03;;;;;;;-146.82;100.00;71671.09;5028418;28;20117;-76
2024/01/10 03:16:49;;;;;;;207.45;73.85;;;;;;;-146.82;100.00;71671.09;5018931;28;20034;-78
2024/01/10 03:19:15;;;;;;;197.65;72.30;;;;;;;-146.82;100.00;71671.09;5016618;28;20038;-77
2024/01/10 03:21:40;;;;;;;206.30;74.90;;;;;;;-146.82;100.00;71671.09;4999075;28;20434;-76
2024/01/10 03:24:06;;;;;;;200.55;68.78;;;;;;;-146.82;100.00;71671.09;5016064;28;20044;-77
2024/01/10 03:26:32;;;;;;;217.45;76.80;;;;;;;-146.82;100.00;71671.09;5015447;28;20406;-76
2024/01/10 03:28:58;;;;;;;206.68;70.18;;;;;;;-146.82;100.00;71671.09;5016728;28;20113;-77
2024/01/10 03:31:23;;;;;;;205.30;72.88;;;;;;;-146.82;100.00;71671.09;5015042;28;20033;-77
2024/01/10 03:33:50;;;;;;;207.32;68.93;;;;;;;-146.82;100.00;71671.09;5016557;28;20105;-77
2024/01/10 03:36:16;;;;;;;207.43;72.60;;;;;;;-146.82;100.00;71671.09;5016193;28;20029;-78
2024/01/10 03:38:42;;;;;;;206.73;75.70;;;;;;;-146.82;100.00;71671.09;5016096;28;20033;-78
2024/01/10 03:41:16;;;;;;;167.27;57.25;;;;;;;-146.82;100.00;71671.09;5016310;28;20026;-77
2024/01/10 03:43:42;;;;;;;204.90;75.47;;;;;;;-146.82;100.00;71671.09;5016375;28;20380;-76
2024/01/10 03:46:07;;;;;;;212.20;69.28;;;;;;;-146.82;100.00;71671.09;5016239;28;20502;-76
2024/01/10 03:48:33;;;;;;;192.07;66.15;;;;;;;-146.82;100.00;71671.09;5016434;28;20455;-77
2024/01/10 03:50:58;;;;;;;234.20;78.80;;;;;;;-146.82;100.00;71671.09;5015846;28;20038;-77
2024/01/10 03:53:24;;;;;;;196.45;71.00;;;;;;;-146.82;100.00;71671.09;5015793;28;20048;-81
2024/01/10 03:55:49;;;;;;;212.55;74.10;;;;;;;-146.82;100.00;71671.09;5016602;28;20105;-77
2024/01/10 03:58:14;;;;;;;211.60;76.38;;;;;;;-146.82;100.00;71671.09;5014805;28;20030;-77
2024/01/10 04:00:40;;;;;;;213.95;76.53;;;;;;;-146.82;100.00;71671.09;5015714;28;20034;-76
2024/01/10 04:03:05;;;;;;;195.77;69.90;;;;;;;-146.82;100.00;71671.09;5015907;28;20029;-76
2024/01/10 04:05:31;;;;;;;212.73;75.68;;;;;;;-146.82;100.00;71671.09;5015804;28;20041;-76
2024/01/10 04:07:56;;;;;;;211.23;76.60;;;;;;;-146.82;100.00;71671.09;5016078;28;20151;-77
2024/01/10 04:10:22;;;;;;;202.80;71.28;;;;;;;-146.82;100.00;71671.09;5015577;28;20383;-77
2024/01/10 04:12:48;;;;;;;220.20;79.00;;;;;;;-146.82;100.00;71671.09;5014935;28;20460;-76
2024/01/10 04:15:13;;;;;;;211.55;76.80;;;;;;;-146.82;100.00;71671.09;5014763;28;20120;-76
2024/01/10 04:17:39;;;;;;;212.27;72.25;;;;;;;-146.82;100.00;71671.09;5016434;28;20041;-77
2024/01/10 04:20:05;;;;;;;207.45;72.30;;;;;;;-146.82;100.00;71671.09;5016892;28;20037;-77
2024/01/10 04:22:31;;;;;;;221.05;74.53;;;;;;;-146.82;100.00;71671.09;5017404;28;20025;-77
2024/01/10 04:25:01;;;;;;;210.10;70.65;;;;;;;-146.82;100.00;71671.09;5020037;28;20386;-77
2024/01/10 04:27:27;;;;;;;199.23;67.68;;;;;;;-146.82;100.00;71671.09;5017812;28;20038;-77
2024/01/10 04:29:53;;;;;;;190.02;69.15;;;;;;;-146.82;100.00;71671.09;4997195;28;20125;-77
2024/01/10 04:32:18;;;;;;;211.27;71.03;;;;;;;-146.82;100.00;71671.09;5013996;28;20030;-77
2024/01/10 04:34:44;;;;;;;200.93;68.30;;;;;;;-146.82;100.00;71671.09;5014181;28;20352;-78
2024/01/10 04:37:10;;;;;;;200.05;69.28;;;;;;;-146.82;100.00;71671.09;5014205;28;20108;-78
2024/01/10 04:39:35;;;;;;;194.25;70.75;;;;;;;-146.82;100.00;71671.09;5013852;28;20034;-77
2024/01/10 04:42:01;;;;;;;188.80;67.90;;;;;;;-146.82;100.00;71671.09;5014959;28;20025;-78
2024/01/10 04:44:27;;;;;;;174.60;64.78;;;;;;;-146.82;100.00;71671.09;5015217;28;20033;-77
2024/01/10 04:46:52;;;;;;;209.57;70.13;;;;;;;-146.82;100.00;71671.09;5015115;28;20060;-77
2024/01/10 04:49:18;;;;;;;175.55;65.40;;;;;;;-146.82;100.00;71671.09;5014148;28;20156;-79
2024/01/10 04:51:45;;;;;;;193.40;63.22;;;;;;;-146.82;100.00;71671.09;4996287;28;20053;-77
2024/01/10 04:54:11;;;;;;;196.35;73.68;;;;;;;-146.82;100.00;71671.09;5014130;28;20033;-79
2024/01/10 04:56:36;;;;;;;199.45;71.40;;;;;;;-146.82;100.00;71671.09;5014611;28;20034;-78
2024/01/10 04:59:03;;;;;;;221.02;76.45;;;;;;;-146.82;100.00;71671.09;5014903;28;20391;-79
2024/01/10 05:01:28;;;;;;;215.82;72.95;;;;;;;-146.82;100.00;71671.09;5014873;28;20021;-78
2024/01/10 05:03:53;;;;;;;208.60;74.60;;;;;;;-146.82;100.00;71671.09;5014020;28;20523;-78
2024/01/10 05:06:19;;;;;;;227.15;76.97;;;;;;;-146.82;100.00;71671.09;5015841;28;20468;-80
2024/01/10 05:08:44;;;;;;;222.07;75.53;;;;;;;-146.82;100.00;71671.09;5014662;28;20458;-77
2024/01/10 05:11:10;;;;;;;194.48;73.82;;;;;;;-146.82;100.00;71671.09;5015568;28;20459;-76
2024/01/10 05:13:36;;;;;;;202.95;72.18;;;;;;;-146.82;100.00;71671.09;5013817;28;20117;-77
2024/01/10 05:16:01;;;;;;;200.18;77.55;;;;;;;-146.82;100.00;71671.09;5014364;28;20033;-77
2024/01/10 05:18:27;;;;;;;213.80;73.75;;;;;;;-146.82;100.00;71671.09;5013371;28;20042;-79
2024/01/10 05:20:52;;;;;;;207.95;74.30;;;;;;;-146.82;100.00;71671.09;5014732;28;20080;-78
2024/01/10 05:23:17;;;;;;;218.20;76.20;;;;;;;-146.82;100.00;71671.09;5015022;28;20527;-77
2024/01/10 05:25:43;;;;;;;215.63;73.40;;;;;;;-146.82;100.00;71671.09;5014257;28;20044;-76
2024/01/10 05:28:08;;;;;;;192.90;67.38;;;;;;;-146.82;100.00;71671.09;5005947;28;20145;-77
2024/01/10 05:30:34;;;;;;;201.32;72.63;;;;;;;-146.82;100.00;71671.09;4995162;28;20109;-76
2024/01/10 05:32:59;;;;;;;217.02;78.28;;;;;;;-146.82;100.00;71671.09;4995223;28;20079;-77
2024/01/10 05:35:28;;;;;;;207.55;78.40;;;;;;;-146.82;100.00;71671.09;4996043;28;20038;-78
2024/01/10 05:37:54;;;;;;;220.60;73.82;;;;;;;-146.82;100.00;71671.09;4996429;28;20468;-77
2024/01/10 05:40:20;;;;;;;199.50;72.75;;;;;;;-146.82;100.00;71671.09;4997009;28;20026;-77
2024/01/10 05:42:45;;;;;;;221.10;77.68;;;;;;;-146.82;100.00;71671.09;4996958;28;20030;-77
2024/01/10 05:45:11;;;;;;;202.50;72.50;;;;;;;-146.82;100.00;71671.09;5019174;28;20463;-75
2024/01/10 05:47:36;;;;;;;212.70;75.57;;;;;;;-146.82;100.00;71671.09;5026192;28;20069;-77
2024/01/10 05:50:06;;;;;;;201.77;70.78;;;;;;;-146.82;100.00;71671.09;5022731;28;20061;-81
2024/01/10 05:52:32;;;;;;;199.68;67.05;;;;;;;-146.82;100.00;71671.09;5016074;28;20072;-80
2024/01/10 05:54:57;;;;;;;191.32;68.10;;;;;;;-146.82;100.00;71671.09;5015999;28;20471;-80
2024/01/10 05:57:23;;;;;;;196.25;70.07;;;;;;;-146.82;100.00;71671.09;5016126;28;20120;-76
2024/01/10 05:59:48;;;;;;;183.38;65.00;;;;;;;-146.82;100.00;71671.09;5014421;28;20026;-78
2024/01/10 06:02:16;;;;;;;191.32;68.13;;;;;;;-146.82;100.00;71671.09;5015581;28;20025;-81
2024/01/10 06:04:42;;;;;;;178.88;67.72;;;;;;;-146.82;100.00;71671.09;5016194;28;20034;-80
2024/01/10 06:07:07;;;;;;;217.80;74.35;;;;;;;-146.82;100.00;71671.09;5015498;28;20116;-78
2024/01/10 06:09:33;;;;;;;211.68;72.40;;;;;;;-146.82;100.00;71671.09;5015235;28;20041;-78
2024/01/10 06:11:58;;;;;;;213.77;74.30;;;;;;;-146.82;100.00;71671.09;5014446;28;20080;-79
2024/01/10 06:14:23;;;;;;;181.38;69.07;;;;;;;-146.82;100.00;71671.09;5014493;28;20026;-76
2024/01/10 06:16:49;;;;;;;192.60;68.47;;;;;;;-146.82;100.00;71671.09;5014780;28;20125;-77
2024/01/10 06:19:14;;;;;;;194.85;67.85;;;;;;;-146.82;100.00;71671.09;5016285;28;20216;-77
2024/01/10 06:21:40;;;;;;;197.80;64.57;;;;;;;-146.82;100.00;71671.09;5015287;28;20029;-76
2024/01/10 06:24:05;;;;;;;191.07;67.40;;;;;;;-146.82;100.00;71671.09;5014758;28;20034;-77
2024/01/10 06:26:31;;;;;;;194.80;68.57;;;;;;;-146.82;100.00;71671.09;5016891;28;20056;-78
2024/01/10 06:28:56;;;;;;;197.38;64.10;;;;;;;-146.82;100.00;71671.09;5017252;28;20041;-78
2024/01/10 06:31:21;;;;;;;207.95;71.35;;;;;;;-146.82;100.00;71671.09;5019635;28;20029;-79
2024/01/10 06:33:47;;;;;;;201.98;73.53;;;;;;;-146.82;100.00;71671.09;5018436;28;20022;-78
2024/01/10 06:36:13;;;;;;;192.75;69.90;;;;;;;-146.82;100.00;71671.09;5018235;28;20144;-79
2024/01/10 06:38:39;;;;;;;199.30;73.43;;;;;;;-146.82;100.00;71671.09;5018797;28;20048;-79
2024/01/10 06:41:13;;;;;;;201.13;73.78;;;;;;;-146.82;100.00;71671.09;5017960;28;20044;-81
2024/01/10 06:43:40;;;;;;;180.00;70.75;;;;;;;-146.82;100.00;71671.09;5002000;28;20470;-79
2024/01/10 06:46:06;;;;;;;201.63;68.85;;;;;;;-146.82;100.00;71671.09;5018914;28;20037;-79
2024/01/10 06:48:34;;;;;;;172.75;57.72;;;;;;;-146.82;100.00;71671.09;5018742;28;20033;-78
2024/01/10 06:50:59;;;;;;;187.80;67.13;;;;;;;-146.82;100.00;71671.09;5001513;28;20029;-78
2024/01/10 06:53:25;;;;;;;197.35;70.18;;;;;;;-146.82;100.00;71671.09;5018561;28;20117;-79
2024/01/10 06:55:50;;;;;;;198.32;71.85;;;;;;;-146.82;100.00;71671.09;5018835;28;20233;-81
2024/01/10 06:58:16;;;;;;;217.07;76.78;;;;;;;-146.82;100.00;71671.09;5017560;28;20461;-80
2024/01/10 07:00:41;;;;;;;198.15;71.15;;;;;;;-146.82;100.00;71671.09;5018306;28;20426;-80
2024/01/10 07:03:07;;;;;;;209.00;72.45;;;;;;;-146.82;100.00;71671.09;5018779;28;20033;-79
2024/01/10 07:05:33;;;;;;;207.68;71.82;;;;;;;-146.82;100.00;71671.09;5019425;28;20112;-78
2024/01/10 07:07:58;;;;;;;223.82;71.63;;;;;;;-146.82;100.00;71671.09;5018710;28;20026;-80
2024/01/10 07:10:28;;;;;;;212.82;73.78;;;;;;;-146.82;100.00;71671.09;5024574;28;20467;-79
2024/01/10 07:12:54;;;;;;;203.45;70.20;;;;;;;-146.82;100.00;71671.09;5031103;28;20049;-78
2024/01/10 07:15:20;;;;;;;199.45;69.72;;;;;;;-146.82;100.00;71671.09;5030038;28;20028;-78
2024/01/10 07:17:45;;;;;;;213.52;76.85;;;;;;;-146.82;100.00;71671.09;5029288;28;20021;-79
2024/01/10 07:20:12;;;;;;;192.13;70.80;;;;;;;-146.82;100.00;71671.09;5025053;28;20072;-78
2024/01/10 07:22:44;;;;;;;206.60;75.15;;;;;;;-146.82;100.00;71671.09;5022894;28;20106;-79
2024/01/10 07:25:14;;;;;;;198.52;72.63;;;;;;;-146.82;100.00;71671.09;5018951;28;20028;-79
2024/01/10 07:27:45;;;;;;;207.70;75.25;;;;;;;-146.82;100.00;71671.09;5016699;28;20203;-80
2024/01/10 07:30:13;;;;;;;213.32;77.40;;;;;;;-146.82;100.00;71671.09;5015065;28;20343;-81
2024/01/10 07:32:42;;;;;;;209.35;74.32;;;;;;;-146.82;100.00;71671.09;5015277;28;20478;-79
2024/01/10 07:35:11;;;;;;;193.10;72.50;;;;;;;-146.82;100.00;71671.09;5017178;28;20414;-79
2024/01/10 07:37:41;;;;;;;195.50;73.57;;;;;;;-146.82;100.00;71671.09;5017048;28;20101;-78
2024/01/10 07:40:16;;;;;;;208.80;73.35;;;;;;;-146.82;100.00;71671.09;5017219;28;20022;-79
2024/01/10 07:42:42;;;;;;;197.68;74.18;;;;;;;-146.82;100.00;71671.09;5016767;28;20022;-80
2024/01/10 07:45:08;;;;;;;197.15;70.57;;;;;;;-146.82;100.00;71671.09;5017181;28;20105;-80
2024/01/10 07:47:37;;;;;;;222.48;80.15;;;;;;;-146.82;100.00;71671.09;5017418;28;20045;-80
2024/01/10 07:50:14;;;;;;;195.25;78.03;;;;;;;-146.82;100.00;71671.09;5016270;28;20021;-79
2024/01/10 07:52:40;;;;;;;191.73;70.93;;;;;;;-146.82;100.00;71671.09;5015736;28;20046;-79
2024/01/10 07:55:06;;;;;;;220.00;75.10;;;;;;;-146.82;100.00;71671.09;5015056;28;20023;-81
2024/01/10 07:57:33;;;;;;;208.30;74.13;;;;;;;-146.82;100.00;71671.09;5015880;28;20033;-80
2024/01/10 07:59:59;;;;;;;204.30;74.53;;;;;;;-146.82;100.00;71671.09;5014882;28;20032;-79
2024/01/10 08:02:24;;;;;;;193.57;70.80;;;;;;;-146.82;100.00;71671.09;5015977;28;20025;-80
2024/01/10 08:04:51;;;;;;;203.48;76.03;;;;;;;-146.82;100.00;71671.09;5015775;28;20412;-81
2024/01/10 08:07:16;;;;;;;204.82;74.68;;;;;;;-146.82;100.00;71671.09;5014421;28;20026;-79
2024/01/10 08:09:42;;;;;;;202.95;73.28;;;;;;;-146.82;100.00;71671.09;5014540;28;20029;-77
2024/01/10 08:12:07;;;;;;;205.20;75.40;;;;;;;-146.82;100.00;71671.09;5015452;28;20470;-78
2024/01/10 08:14:33;;;;;;;197.35;75.05;;;;;;;-146.82;100.00;71671.09;5013992;28;20033;-79
2024/01/10 08:17:00;;;;;;;192.02;76.40;;;;;;;-146.82;100.00;71671.09;5015459;28;20028;-79
2024/01/10 08:19:26;;;;;;;210.82;74.95;;;;;;;-146.82;100.00;71671.09;5015134;28;20032;-79
2024/01/10 08:21:52;;;;;;;194.50;74.68;;;;;;;-146.82;100.00;71671.09;5015202;28;20030;-80
2024/01/10 08:24:19;;;;;;;220.05;78.07;;;;;;;-146.82;100.00;71671.09;5014941;28;20480;-80
2024/01/10 08:26:44;;;;;;;209.25;76.32;;;;;;;-146.82;100.00;71671.09;5016223;28;20030;-79
2024/01/10 08:29:09;;;;;;;206.35;82.40;;;;;;;-146.82;100.00;71671.09;5016595;28;20463;-80
2024/01/10 08:31:35;;;;;;;197.48;75.15;;;;;;;-146.82;100.00;71671.09;5015944;28;20037;-80
2024/01/10 08:34:01;;;;;;;206.50;75.30;;;;;;;-146.82;100.00;71671.09;5015299;28;20045;-81
2024/01/10 08:36:27;;;;;;;224.65;79.70;;;;;;;-146.82;100.00;71671.09;5015097;28;20037;-80
2024/01/10 08:38:52;;;;;;;226.18;78.13;;;;;;;-146.82;100.00;71671.09;5015617;28;20022;-80
2024/01/10 08:41:19;;;;;;;205.30;75.82;;;;;;;-146.82;100.00;71671.09;5018538;28;20034;-81
2024/01/10 08:43:48;;;;;;;184.23;74.05;;;;;;;-146.82;100.00;71671.09;5019865;28;20041;-80
2024/01/10 08:46:13;;;;;;;220.65;80.78;;;;;;;-146.82;100.00;71671.09;5019638;28;20034;-80
2024/01/10 08:48:39;;;;;;;222.02;79.68;;;;;;;-146.82;100.00;71671.09;5018308;28;20100;-81
2024/01/10 08:51:04;;;;;;;219.68;81.30;;;;;;;-146.82;100.00;71671.09;5016820;28;20100;-79
2024/01/10 08:53:30;;;;;;;210.25;79.38;;;;;;;-146.82;100.00;71671.09;5018122;28;20050;-79
2024/01/10 08:55:56;;;;;;;209.30;83.75;;;;;;;-146.82;100.00;71671.09;5013862;28;20059;-80
2024/01/10 08:58:21;;;;;;;227.88;84.88;;;;;;;-146.82;100.00;71671.09;5014683;28;20192;-79
2024/01/10 09:00:47;;;;;;;227.20;87.70;;;;;;;-146.82;100.00;71671.09;5014230;28;20517;-79
2024/01/10 09:03:12;;;;;;;236.95;85.68;;;;;;;-146.82;100.00;71671.09;5014452;28;20022;-80
2024/01/10 09:05:38;;;;;;;227.43;86.25;;;;;;;-146.82;100.00;71671.09;5014484;28;20017;-78
2024/01/10 09:08:04;;;;;;;227.32;87.20;;;;;;;-146.82;100.00;71671.09;5014775;28;20025;-79
2024/01/10 09:10:29;;;;;;;248.38;92.85;;;;;;;-146.82;100.00;71671.09;5014459;28;20064;-77
2024/01/10 09:12:55;;;;;;;224.20;87.68;;;;;;;-146.82;100.00;71671.09;5013801;28;20018;-79
2024/01/10 09:15:21;;;;;;;242.57;89.18;;;;;;;-146.82;100.00;71671.09;5014083;28;20030;-78
2024/01/10 09:17:46;;;;;;;232.25;88.10;;;;;;;-146.82;100.00;71671.09;5015297;28;20125;-80
2024/01/10 09:20:12;;;;;;;227.75;86.60;;;;;;;-146.82;100.00;71671.09;5016418;28;20024;-80
2024/01/10 09:22:38;;;;;;;215.13;84.07;;;;;;;-146.82;100.00;71671.09;5015899;28;20018;-80
2024/01/10 09:25:07;;;;;;;227.15;84.70;;;;;;;-146.82;100.00;71671.09;5015477;28;20032;-80
2024/01/10 09:27:35;;;;;;;218.80;85.05;;;;;;;-146.82;100.00;71671.09;5017387;28;20034;-80
2024/01/10 09:30:02;;;;;;;217.85;84.38;;;;;;;-146.82;100.00;71671.09;4998437;28;20022;-80
2024/01/10 09:32:29;;;;;;;246.43;93.60;;;;;;;-146.82;100.00;71671.09;5013847;28;20022;-79
2024/01/10 09:34:55;;;;;;;215.38;86.53;;;;;;;-146.82;100.00;71671.09;4996382;28;20085;-80
2024/01/10 09:37:20;;;;;;;253.63;96.32;;;;;;;-146.82;100.00;71671.09;5012806;28;20029;-80
2024/01/10 09:39:46;;;;;;;237.05;89.10;;;;;;;-146.82;100.00;71671.09;5012633;28;20030;-80
2024/01/10 09:42:11;;;;;;;229.98;88.40;;;;;;;-146.82;100.00;71671.09;5013576;28;20021;-80
2024/01/10 09:44:37;;;;;;;226.75;85.88;;;;;;;-146.82;100.00;71671.09;5012649;28;20037;-80
2024/01/10 09:47:02;;;;;;;230.02;87.00;;;;;;;-146.82;100.00;71671.09;4996239;28;20033;-80
2024/01/10 09:49:28;;;;;;;214.68;82.60;;;;;;;-146.82;100.00;71671.09;5015145;28;20379;-80
2024/01/10 09:52:01;;;;;;;223.13;86.80;;;;;;;-146.82;100.00;71671.09;5015474;28;20021;-79
2024/01/10 09:54:29;;;;;;;226.88;85.50;;;;;;;-146.82;100.00;71671.09;5015394;28;20140;-79
2024/01/10 09:56:55;;;;;;;206.25;78.65;;;;;;;-146.82;100.00;71671.09;5013787;28;20033;-80
2024/01/10 09:59:21;;;;;;;218.05;82.63;;;;;;;-146.82;100.00;71671.09;5014059;28;20022;-80
2024/01/10 10:01:46;;;;;;;220.90;84.15;;;;;;;-146.82;100.00;71671.09;5016599;28;20026;-79
2024/01/10 10:04:13;;;;;;;204.30;83.75;;;;;;;-146.82;100.00;71671.09;5000107;28;20021;-80
2024/01/10 10:06:38;;;;;;;207.93;82.00;;;;;;;-146.82;100.00;71671.09;5017502;28;20382;-80
2024/01/10 10:09:04;;;;;;;224.82;81.68;;;;;;;-146.82;100.00;71671.09;5017824;28;20021;-81
2024/01/10 10:11:30;;;;;;;211.82;81.00;;;;;;;-146.82;100.00;71671.09;5017930;28;20022;-81
2024/01/10 10:13:55;;;;;;;224.02;83.72;;;;;;;-146.82;100.00;71671.09;5016639;28;20033;-80
2024/01/10 10:16:25;;;;;;;222.60;85.63;;;;;;;-146.82;100.00;71671.09;5018076;28;20422;-79
2024/01/10 10:18:53;;;;;;;216.02;83.70;;;;;;;-146.82;100.00;71671.09;5000710;28;20030;-79
2024/01/10 10:21:18;;;;;;;214.63;81.72;;;;;;;-146.82;100.00;71671.09;5001819;28;20026;-79
2024/01/10 10:23:58;;;;;;;201.23;79.88;;;;;;;-146.82;100.00;71671.09;5019229;28;20033;-80
2024/01/10 10:26:23;;;;;;;219.13;82.82;;;;;;;-146.82;100.00;71671.09;5017604;28;20052;-81
2024/01/10 10:28:50;;;;;;;207.13;82.65;;;;;;;-146.82;100.00;71671.09;5019130;28;20466;-81
2024/01/10 10:31:16;;;;;;;208.63;79.90;;;;;;;-146.82;100.00;71671.09;5018936;28;20034;-77
2024/01/10 10:33:43;;;;;;;209.68;80.22;;;;;;;-146.82;100.00;71671.09;5020182;28;20101;-80
2024/01/10 10:36:09;;;;;;;208.43;77.82;;;;;;;-146.82;100.00;71671.09;5023079;28;20060;-79
2024/01/10 10:38:36;;;;;;;199.10;76.63;;;;;;;-146.82;100.00;71671.09;5022386;28;20085;-81
2024/01/10 10:41:04;;;;;;;193.07;75.40;;;;;;;-146.82;100.00;71671.09;5004298;28;20026;-79
2024/01/10 10:43:35;;;;;;;203.23;79.78;;;;;;;-146.82;100.00;71671.09;5020978;28;20040;-81